createdAt,value
2019-04-21T00:00:17.150Z,52.39
2019-04-21T00:01:14.231Z,52.48
2019-04-21T00:02:18.624Z,52.96
2019-04-21T00:03:18.175Z,52.29
2019-04-21T00:04:25.692Z,52.29
2019-04-21T00:05:38.559Z,52.10
2019-04-21T00:06:32.405Z,52.29
2019-04-21T00:07:31.370Z,52.48
2019-04-21T00:09:33.636Z,52.87
2019-04-21T00:10:38.489Z,52.48
2019-04-21T00:12:28.325Z,53.73
2019-04-21T00:13:29.504Z,53.06
2019-04-21T00:14:22.158Z,53.16
2019-04-21T00:15:20.441Z,52.87
2019-04-21T00:16:16.110Z,52.75
2019-04-21T00:17:17.523Z,53.13
2019-04-21T00:18:14.353Z,52.87
2019-04-21T00:19:18.165Z,52.94
2019-04-21T00:20:23.840Z,53.13
2019-04-21T00:21:25.526Z,52.84
2019-04-21T00:22:23.272Z,53.89
2019-04-21T00:23:31.277Z,53.61
2019-04-21T00:24:25.052Z,52.46
2019-04-21T00:25:27.572Z,53.61
2019-04-21T00:28:37.832Z,53.61
2019-04-21T00:29:34.056Z,53.80
2019-04-21T00:30:34.261Z,54.37
2019-04-21T00:31:32.254Z,53.70
2019-04-21T00:32:25.688Z,53.70
2019-04-21T00:34:13.339Z,53.89
2019-04-21T00:35:18.777Z,53.03
2019-04-21T00:36:18.552Z,53.70
2019-04-21T00:37:25.066Z,53.80
2019-04-21T00:38:35.882Z,53.80
2019-04-21T00:39:43.322Z,53.80
2019-04-21T00:40:36.967Z,54.18
2019-04-21T00:41:38.076Z,54.66
2019-04-21T00:42:30.368Z,54.37
2019-04-21T00:43:28.423Z,54.37
2019-04-21T00:44:24.486Z,54.47
2019-04-21T00:45:29.141Z,54.56
2019-04-21T00:46:32.333Z,55.04
2019-04-21T00:47:34.031Z,54.37
2019-04-21T00:48:34.775Z,54.27
2019-04-21T00:49:27.114Z,54.94
2019-04-21T00:50:41.932Z,54.47
2019-04-21T00:51:39.803Z,55.30
2019-04-21T00:52:46.059Z,55.49
2019-04-21T00:53:43.832Z,55.40
2019-04-21T00:54:44.125Z,54.72
2019-04-21T00:55:42.521Z,54.82
2019-04-21T00:56:36.607Z,55.40
2019-04-21T00:57:41.263Z,55.20
2019-04-21T00:58:39.033Z,54.53
2019-04-21T00:59:37.065Z,55.40
2019-04-21T01:00:33.802Z,55.68
2019-04-21T01:01:32.891Z,54.63
2019-04-21T01:02:43.136Z,55.20
2019-04-21T01:03:43.274Z,55.68
2019-04-21T01:04:39.994Z,55.58
2019-04-21T01:06:35.156Z,55.01
2019-04-21T01:07:37.133Z,55.01
2019-04-21T01:08:35.705Z,55.68
2019-04-21T01:09:29.069Z,55.58
2019-04-21T01:10:24.155Z,56.45
2019-04-21T01:11:33.251Z,56.35
2019-04-21T01:12:37.371Z,56.16
2019-04-21T01:13:51.984Z,56.35
2019-04-21T01:14:45.519Z,56.63
2019-04-21T01:15:39.880Z,55.96
2019-04-21T01:16:39.803Z,56.92
2019-04-21T01:17:35.244Z,56.63
2019-04-21T01:18:33.772Z,56.63
2019-04-21T01:19:33.201Z,57.02
2019-04-21T01:20:17.768Z,57.02
2019-04-21T01:21:14.541Z,56.45
2019-04-21T01:22:13.545Z,57.40
2019-04-21T01:23:14.620Z,56.80
2019-04-21T01:24:19.707Z,56.51
2019-04-21T01:25:24.187Z,56.89
2019-04-21T01:26:28.617Z,57.18
2019-04-21T01:27:26.326Z,57.09
2019-04-21T01:28:29.258Z,57.18
2019-04-21T01:29:39.127Z,56.80
2019-04-21T01:30:35.805Z,57.18
2019-04-21T01:31:28.276Z,57.28
2019-04-21T01:32:34.429Z,56.70
2019-04-21T01:33:38.528Z,57.09
2019-04-21T01:34:33.190Z,56.89
2019-04-21T01:35:38.174Z,56.89
2019-04-21T01:36:33.334Z,56.99
2019-04-21T01:37:42.439Z,56.70
2019-04-21T01:38:40.329Z,58.04
2019-04-21T01:39:42.858Z,57.28
2019-04-21T01:40:37.656Z,57.18
2019-04-21T01:41:42.977Z,57.65
2019-04-21T01:42:32.746Z,57.28
2019-04-21T01:43:33.420Z,57.18
2019-04-21T01:44:40.375Z,57.94
2019-04-21T01:45:31.857Z,57.18
2019-04-21T01:46:29.640Z,57.18
2019-04-21T01:47:31.180Z,58.20
2019-04-21T01:48:32.900Z,57.06
2019-04-21T01:49:26.398Z,56.89
2019-04-21T01:50:31.267Z,57.56
2019-04-21T01:51:31.087Z,58.14
2019-04-21T01:53:39.463Z,58.33
2019-04-21T01:54:39.310Z,58.42
2019-04-21T01:55:35.630Z,58.39
2019-04-21T01:56:34.280Z,59.56
2019-04-21T01:57:31.674Z,58.04
2019-04-21T01:58:25.705Z,58.80
2019-04-21T01:59:27.093Z,58.42
2019-04-21T02:00:32.813Z,58.61
2019-04-21T02:01:35.315Z,58.80
2019-04-21T02:02:41.479Z,58.99
2019-04-21T02:04:41.526Z,58.42
2019-04-21T02:05:36.368Z,58.51
2019-04-21T02:06:33.772Z,58.42
2019-04-21T02:07:34.529Z,58.04
2019-04-21T02:08:34.531Z,59.28
2019-04-21T02:09:35.644Z,59.38
2019-04-21T02:10:41.499Z,58.39
2019-04-21T02:11:37.547Z,59.25
2019-04-21T02:12:40.665Z,58.39
2019-04-21T02:13:35.142Z,58.48
2019-04-21T02:14:41.551Z,58.77
2019-04-21T02:15:41.995Z,58.68
2019-04-21T02:16:37.350Z,58.87
2019-04-21T02:17:36.338Z,58.77
2019-04-21T02:18:36.453Z,58.77
2019-04-21T02:19:31.633Z,58.97
2019-04-21T02:20:26.957Z,58.87
2019-04-21T02:21:28.694Z,58.77
2019-04-21T02:22:56.092Z,59.06
2019-04-21T02:23:39.629Z,59.44
2019-04-21T02:24:42.265Z,59.73
2019-04-21T02:25:38.471Z,59.44
2019-04-21T02:26:37.719Z,59.63
2019-04-21T02:27:37.743Z,59.73
2019-04-21T02:28:44.046Z,59.73
2019-04-21T02:29:40.902Z,59.34
2019-04-21T02:31:06.091Z,59.92
2019-04-21T02:32:01.911Z,60.30
2019-04-21T02:32:53.424Z,59.82
2019-04-21T02:34:57.476Z,59.63
2019-04-21T02:39:00.678Z,59.41
2019-04-21T02:39:48.973Z,60.17
2019-04-21T02:40:47.791Z,60.02
2019-04-21T02:43:03.137Z,60.46
2019-04-21T02:43:50.105Z,60.08
2019-04-21T02:45:47.195Z,60.27
2019-04-21T02:46:42.006Z,60.27
2019-04-21T02:47:57.256Z,59.99
2019-04-21T02:48:55.543Z,59.79
2019-04-21T02:50:47.114Z,60.55
2019-04-21T02:51:56.831Z,61.13
2019-04-21T02:52:43.759Z,61.04
2019-04-21T02:54:01.978Z,61.04
2019-04-21T02:55:44.217Z,61.04
2019-04-21T02:59:02.308Z,61.22
2019-04-21T02:59:50.399Z,61.22
2019-04-21T03:00:46.635Z,61.41
2019-04-21T03:01:49.047Z,60.94
2019-04-21T03:02:52.589Z,60.75
2019-04-21T03:03:50.584Z,60.84
2019-04-21T03:05:01.761Z,62.08
2019-04-21T03:05:48.827Z,61.89
2019-04-21T03:07:52.207Z,61.41
2019-04-21T03:08:54.302Z,61.32
2019-04-21T03:10:53.692Z,61.80
2019-04-21T03:11:52.172Z,61.80
2019-04-21T03:13:05.686Z,61.89
2019-04-21T03:13:47.157Z,61.60
2019-04-21T03:14:55.593Z,61.41
2019-04-21T03:15:53.251Z,62.08
2019-04-21T03:16:55.558Z,61.89
2019-04-21T03:18:52.488Z,61.99
2019-04-21T03:20:45.941Z,62.34
2019-04-21T03:21:50.644Z,62.34
2019-04-21T03:22:42.347Z,62.34
2019-04-21T03:23:53.529Z,62.43
2019-04-21T03:25:23.394Z,61.96
2019-04-21T03:25:51.951Z,63.00
2019-04-21T03:27:01.037Z,62.62
2019-04-21T03:28:49.435Z,63.20
2019-04-21T03:29:52.597Z,63.00
2019-04-21T03:31:14.024Z,63.00
2019-04-21T03:35:15.221Z,63.57
2019-04-21T03:38:51.071Z,62.34
2019-04-21T03:39:50.603Z,63.67
2019-04-21T03:40:41.000Z,63.10
2019-04-21T03:42:00.327Z,63.29
2019-04-21T03:43:54.669Z,62.91
2019-04-21T03:46:47.417Z,62.72
2019-04-21T03:47:43.092Z,63.00
2019-04-21T03:48:52.584Z,63.86
2019-04-21T03:50:52.457Z,63.76
2019-04-21T03:51:50.512Z,63.96
2019-04-21T03:54:53.913Z,63.67
2019-04-21T03:55:53.140Z,63.57
2019-04-21T03:57:01.443Z,63.39
2019-04-21T03:59:45.320Z,63.67
2019-04-21T04:01:51.060Z,64.53
2019-04-21T04:02:55.157Z,63.57
2019-04-21T04:04:49.676Z,63.39
2019-04-21T04:05:59.494Z,63.10
2019-04-21T04:08:59.009Z,65.00
2019-04-21T04:10:51.890Z,64.34
2019-04-21T04:11:53.205Z,64.91
2019-04-21T04:15:18.291Z,64.72
2019-04-21T04:17:40.815Z,65.00
2019-04-21T04:19:44.691Z,64.72
2019-04-21T04:20:48.030Z,65.29
2019-04-21T04:22:04.330Z,64.91
2019-04-21T04:22:52.580Z,64.72
2019-04-21T04:24:49.954Z,65.00
2019-04-21T04:25:59.087Z,65.29
2019-04-21T04:26:53.490Z,64.91
2019-04-21T04:29:00.512Z,64.34
2019-04-21T04:30:45.542Z,63.96
2019-04-21T04:32:41.988Z,64.97
2019-04-21T04:34:10.011Z,64.34
2019-04-21T04:34:58.854Z,64.81
2019-04-21T04:37:03.475Z,65.77
2019-04-21T04:39:53.468Z,65.58
2019-04-21T04:40:46.943Z,65.77
2019-04-21T04:41:53.328Z,65.20
2019-04-21T04:43:09.732Z,65.07
2019-04-21T04:47:56.567Z,64.91
2019-04-21T04:50:49.389Z,65.73
2019-04-21T04:52:45.737Z,66.59
2019-04-21T04:53:48.794Z,66.40
2019-04-21T04:54:55.106Z,66.50
2019-04-21T04:55:47.818Z,64.97
2019-04-21T04:56:51.256Z,65.55
2019-04-21T04:57:54.591Z,65.73
2019-04-21T05:00:01.761Z,65.73
2019-04-21T05:05:48.711Z,65.55
2019-04-21T05:07:52.193Z,64.97
2019-04-21T05:09:46.941Z,64.78
2019-04-21T05:10:57.388Z,65.64
2019-04-21T05:11:50.899Z,66.02
2019-04-21T05:12:43.783Z,65.36
2019-04-21T05:13:55.331Z,65.39
2019-04-21T05:14:48.383Z,65.73
2019-04-21T05:15:53.608Z,65.77
2019-04-21T05:16:46.799Z,65.77
2019-04-21T05:17:49.164Z,65.10
2019-04-21T05:18:54.339Z,65.00
2019-04-21T05:19:57.413Z,64.91
2019-04-21T05:20:52.326Z,64.72
2019-04-21T05:21:38.697Z,64.91
2019-04-21T05:22:42.684Z,64.72
2019-04-21T05:23:38.862Z,66.24
2019-04-21T05:24:33.835Z,64.81
2019-04-21T05:25:33.926Z,65.58
2019-04-21T05:26:36.076Z,65.86
2019-04-21T05:27:29.465Z,65.58
2019-04-21T05:28:35.540Z,66.24
2019-04-21T05:29:38.850Z,65.86
2019-04-21T05:30:40.380Z,65.96
2019-04-21T05:31:38.834Z,66.44
2019-04-21T05:32:41.755Z,65.77
2019-04-21T05:33:38.098Z,65.86
2019-04-21T05:34:35.948Z,65.29
2019-04-21T05:35:43.821Z,64.72
2019-04-21T05:36:37.946Z,65.58
2019-04-21T05:37:36.925Z,65.20
2019-04-21T05:38:33.350Z,65.77
2019-04-21T05:39:36.227Z,65.77
2019-04-21T05:40:31.835Z,64.91
2019-04-21T05:41:26.191Z,64.81
2019-04-21T05:42:36.803Z,64.81
2019-04-21T05:43:39.105Z,64.81
2019-04-21T05:44:35.467Z,64.75
2019-04-21T05:45:40.981Z,66.38
2019-04-21T05:46:40.793Z,64.56
2019-04-21T05:47:40.110Z,64.85
2019-04-21T05:48:39.651Z,64.09
2019-04-21T05:49:36.324Z,64.28
2019-04-21T05:50:34.953Z,63.13
2019-04-21T05:51:37.210Z,62.56
2019-04-21T05:52:37.544Z,62.75
2019-04-21T05:53:39.380Z,63.70
2019-04-21T05:54:48.572Z,63.60
2019-04-21T05:55:46.029Z,64.28
2019-04-21T05:56:45.707Z,63.13
2019-04-21T05:57:42.581Z,63.42
2019-04-21T05:58:40.839Z,63.64
2019-04-21T05:59:47.970Z,61.92
2019-04-21T06:00:59.740Z,61.25
2019-04-21T06:01:46.435Z,62.02
2019-04-21T06:02:40.352Z,61.83
2019-04-21T06:03:44.246Z,62.40
2019-04-21T06:04:56.600Z,61.07
2019-04-21T06:06:05.406Z,62.21
2019-04-21T06:06:39.501Z,62.11
2019-04-21T06:07:42.852Z,61.92
2019-04-21T06:08:42.235Z,60.21
2019-04-21T06:09:49.003Z,60.11
2019-04-21T06:10:44.611Z,60.30
2019-04-21T06:11:37.815Z,60.78
2019-04-21T06:12:44.955Z,60.58
2019-04-21T06:14:43.741Z,60.87
2019-04-21T06:15:48.406Z,61.00
2019-04-21T06:17:44.458Z,60.61
2019-04-21T06:19:43.468Z,59.66
2019-04-21T06:20:44.798Z,59.38
2019-04-21T06:21:38.606Z,60.14
2019-04-21T06:22:39.753Z,58.14
2019-04-21T06:23:42.243Z,57.85
2019-04-21T06:25:08.264Z,57.46
2019-04-21T06:26:53.856Z,58.33
2019-04-21T06:27:37.716Z,58.04
2019-04-21T06:29:44.180Z,58.04
2019-04-21T06:30:57.998Z,56.80
2019-04-21T06:32:47.209Z,55.20
2019-04-21T06:33:44.837Z,55.20
2019-04-21T06:35:02.752Z,55.20
2019-04-21T06:36:07.747Z,56.06
2019-04-21T06:36:43.330Z,57.02
2019-04-21T06:38:54.397Z,55.58
2019-04-21T06:39:54.115Z,56.16
2019-04-21T06:40:46.110Z,56.54
2019-04-21T06:41:55.678Z,56.82
2019-04-21T06:42:40.231Z,55.11
2019-04-21T06:43:48.160Z,55.01
2019-04-21T06:44:48.346Z,55.04
2019-04-21T06:45:51.115Z,54.85
2019-04-21T06:46:48.880Z,54.94
2019-04-21T06:47:47.781Z,54.47
2019-04-21T06:48:42.739Z,54.27
2019-04-21T06:49:41.082Z,54.08
2019-04-21T06:50:50.398Z,54.47
2019-04-21T06:51:38.956Z,54.47
2019-04-21T06:52:53.865Z,54.47
2019-04-21T06:53:44.631Z,54.08
2019-04-21T06:54:44.410Z,53.73
2019-04-21T06:55:36.983Z,53.61
2019-04-21T06:56:49.164Z,54.37
2019-04-21T06:57:39.001Z,54.39
2019-04-21T06:58:35.963Z,53.16
2019-04-21T06:59:40.256Z,52.87
2019-04-21T07:00:38.554Z,52.58
2019-04-21T07:01:46.378Z,52.20
2019-04-21T07:03:44.027Z,53.92
2019-04-21T07:03:48.671Z,52.87
2019-04-21T07:04:48.749Z,53.16
2019-04-21T07:05:40.978Z,52.58
2019-04-21T07:06:52.020Z,52.39
2019-04-21T07:07:43.291Z,52.29
2019-04-21T07:08:44.656Z,52.10
2019-04-21T07:09:36.426Z,51.81
2019-04-21T07:10:37.054Z,52.01
2019-04-21T07:11:39.357Z,52.20
2019-04-21T07:12:38.993Z,52.22
2019-04-21T07:13:36.592Z,52.03
2019-04-21T07:15:46.326Z,52.13
2019-04-21T07:16:44.915Z,52.42
2019-04-21T07:17:38.914Z,52.22
2019-04-21T07:18:42.840Z,52.42
2019-04-21T07:19:48.397Z,52.22
2019-04-21T07:20:43.316Z,52.51
2019-04-21T07:22:44.169Z,52.22
2019-04-21T07:23:50.210Z,52.32
2019-04-21T07:24:56.037Z,52.42
2019-04-21T07:25:39.094Z,52.44
2019-04-21T07:26:42.711Z,52.83
2019-04-21T07:27:41.514Z,52.83
2019-04-21T07:28:42.975Z,52.25
2019-04-21T07:29:56.552Z,52.54
2019-04-21T07:30:44.223Z,52.06
2019-04-21T07:31:47.110Z,52.34
2019-04-21T07:32:45.999Z,53.02
2019-04-21T07:34:38.261Z,52.44
2019-04-21T07:35:37.476Z,52.37
2019-04-21T07:37:46.104Z,51.99
2019-04-21T07:38:41.066Z,51.89
2019-04-21T07:39:39.089Z,51.79
2019-04-21T07:40:36.492Z,52.18
2019-04-21T07:41:40.048Z,51.79
2019-04-21T07:42:35.602Z,52.18
2019-04-21T07:43:35.450Z,51.99
2019-04-21T07:44:35.221Z,52.37
2019-04-21T07:45:38.108Z,52.18
2019-04-21T07:46:29.002Z,51.99
2019-04-21T07:47:39.535Z,51.99
2019-04-21T07:48:38.090Z,51.51
2019-04-21T07:49:44.617Z,51.13
2019-04-21T07:50:38.823Z,51.15
2019-04-21T07:51:47.960Z,51.06
2019-04-21T07:52:42.938Z,51.06
2019-04-21T07:53:42.367Z,51.06
2019-04-21T07:54:44.801Z,50.87
2019-04-21T07:56:25.541Z,51.06
2019-04-21T07:57:36.862Z,50.77
2019-04-21T07:58:47.683Z,50.87
2019-04-21T07:59:52.303Z,51.25
2019-04-21T08:01:00.960Z,50.87
2019-04-21T08:01:40.085Z,50.99
2019-04-21T08:02:47.674Z,50.99
2019-04-21T08:03:38.945Z,50.99
2019-04-21T08:05:45.842Z,50.79
2019-04-21T08:06:40.298Z,51.08
2019-04-21T08:07:48.008Z,51.08
2019-04-21T08:08:44.853Z,51.08
2019-04-21T08:09:42.312Z,51.08
2019-04-21T08:10:37.781Z,50.41
2019-04-21T08:11:36.675Z,50.41
2019-04-21T08:12:35.912Z,50.12
2019-04-21T08:13:52.993Z,50.22
2019-04-21T08:14:53.544Z,49.65
2019-04-21T08:15:39.967Z,49.29
2019-04-21T08:16:42.100Z,49.48
2019-04-21T08:17:41.360Z,49.48
2019-04-21T08:18:39.499Z,49.67
2019-04-21T08:19:35.951Z,49.29
2019-04-21T08:20:34.895Z,49.29
2019-04-21T08:21:45.896Z,49.57
2019-04-21T08:22:41.312Z,49.38
2019-04-21T08:23:37.014Z,49.48
2019-04-21T08:24:46.754Z,49.48
2019-04-21T08:25:47.211Z,49.41
2019-04-21T08:26:58.581Z,49.12
2019-04-21T08:27:41.774Z,49.21
2019-04-21T08:28:39.142Z,48.93
2019-04-21T08:29:44.637Z,49.50
2019-04-21T08:30:36.254Z,49.02
2019-04-21T08:31:50.019Z,49.21
2019-04-21T08:33:02.308Z,49.60
2019-04-21T08:34:43.167Z,48.16
2019-04-21T08:36:41.776Z,48.44
2019-04-21T08:37:41.778Z,48.44
2019-04-21T08:38:41.728Z,48.74
2019-04-21T08:39:50.998Z,48.57
2019-04-21T08:40:59.022Z,48.76
2019-04-21T08:41:40.805Z,48.95
2019-04-21T08:42:40.018Z,48.47
2019-04-21T08:43:42.753Z,48.57
2019-04-21T08:44:40.449Z,48.76
2019-04-21T08:45:45.269Z,48.57
2019-04-21T08:46:44.899Z,48.57
2019-04-21T08:47:39.642Z,48.66
2019-04-21T08:48:46.600Z,48.85
2019-04-21T08:49:41.471Z,48.57
2019-04-21T08:50:40.069Z,48.47
2019-04-21T08:51:40.393Z,48.21
2019-04-21T08:52:49.356Z,47.92
2019-04-21T08:53:45.160Z,47.82
2019-04-21T08:54:43.978Z,47.63
2019-04-21T08:55:39.980Z,47.92
2019-04-21T08:56:45.333Z,47.92
2019-04-21T08:57:52.662Z,47.34
2019-04-21T08:58:41.533Z,47.05
2019-04-21T08:59:36.118Z,46.89
2019-04-21T09:00:38.934Z,46.69
2019-04-21T09:01:43.061Z,46.69
2019-04-21T09:02:40.381Z,46.79
2019-04-21T09:03:43.003Z,46.69
2019-04-21T09:04:33.687Z,46.59
2019-04-21T09:05:36.700Z,46.79
2019-04-21T09:06:54.175Z,46.50
2019-04-21T09:07:39.418Z,46.31
2019-04-21T09:08:44.440Z,46.31
2019-04-21T09:09:41.643Z,46.31
2019-04-21T09:10:39.898Z,46.31
2019-04-21T09:11:37.626Z,46.62
2019-04-21T09:12:41.804Z,47.10
2019-04-21T09:13:38.404Z,47.49
2019-04-21T09:14:39.568Z,47.10
2019-04-21T09:15:34.983Z,46.72
2019-04-21T09:16:35.171Z,45.85
2019-04-21T09:17:33.063Z,45.85
2019-04-21T09:18:32.521Z,45.95
2019-04-21T09:20:46.106Z,44.70
2019-04-21T09:21:39.414Z,45.29
2019-04-21T09:22:35.742Z,45.20
2019-04-21T09:23:39.222Z,44.91
2019-04-21T09:24:41.479Z,44.53
2019-04-21T09:25:40.739Z,44.24
2019-04-21T09:26:34.371Z,44.05
2019-04-21T09:27:39.477Z,44.14
2019-04-21T09:28:36.772Z,43.76
2019-04-21T09:29:32.408Z,43.85
2019-04-21T09:30:21.932Z,43.28
2019-04-21T09:31:27.826Z,43.66
2019-04-21T09:32:25.040Z,43.88
2019-04-21T09:33:20.848Z,43.30
2019-04-21T09:34:25.067Z,43.01
2019-04-21T09:35:22.258Z,42.43
2019-04-21T09:36:23.339Z,41.95
2019-04-21T09:37:35.320Z,41.95
2019-04-21T09:38:29.960Z,41.18
2019-04-21T09:39:24.089Z,41.56
2019-04-21T09:40:29.088Z,41.95
2019-04-21T09:41:24.072Z,41.86
2019-04-21T09:42:21.927Z,42.24
2019-04-21T09:43:34.285Z,42.43
2019-04-21T09:44:27.607Z,42.16
2019-04-21T09:45:22.542Z,42.16
2019-04-21T09:46:20.922Z,42.65
2019-04-21T09:47:24.745Z,41.97
2019-04-21T09:48:22.445Z,42.36
2019-04-21T09:49:23.859Z,42.16
2019-04-21T09:50:22.095Z,41.88
2019-04-21T09:51:20.729Z,40.84
2019-04-21T09:52:25.785Z,39.68
2019-04-21T09:53:28.493Z,40.64
2019-04-21T09:54:24.813Z,40.45
2019-04-21T09:55:24.604Z,40.64
2019-04-21T09:56:31.451Z,40.64
2019-04-21T09:57:31.368Z,40.74
2019-04-21T09:58:29.325Z,41.13
2019-04-21T09:59:28.021Z,41.13
2019-04-21T10:00:25.338Z,41.34
2019-04-21T10:01:28.782Z,41.63
2019-04-21T10:02:32.719Z,41.63
2019-04-21T10:03:21.773Z,41.53
2019-04-21T10:04:20.938Z,38.64
2019-04-21T10:05:21.445Z,38.06
2019-04-21T10:06:20.995Z,37.87
2019-04-21T10:07:28.197Z,38.35
2019-04-21T10:08:20.990Z,37.68
2019-04-21T10:09:21.788Z,37.68
2019-04-21T10:10:21.019Z,37.19
2019-04-21T10:11:22.626Z,37.19
2019-04-21T10:12:21.047Z,36.81
2019-04-21T10:13:21.061Z,36.71
2019-04-21T10:14:22.043Z,36.52
2019-04-21T10:15:23.601Z,37.58
2019-04-21T10:16:21.916Z,36.71
2019-04-21T10:17:21.730Z,36.81
2019-04-21T10:18:21.695Z,36.13
2019-04-21T10:19:21.713Z,36.52
2019-04-21T10:20:22.271Z,36.81
2019-04-21T10:21:22.032Z,36.63
2019-04-21T10:22:21.236Z,36.52
2019-04-21T10:23:21.259Z,36.44
2019-04-21T10:24:22.204Z,36.73
2019-04-21T10:25:21.246Z,37.21
2019-04-21T10:26:22.233Z,37.02
2019-04-21T10:27:21.278Z,35.10
2019-04-21T10:28:21.294Z,34.22
2019-04-21T10:29:25.768Z,33.94
2019-04-21T10:30:22.396Z,33.74
2019-04-21T10:31:22.678Z,34.14
2019-04-21T10:32:23.515Z,34.14
2019-04-21T10:33:22.025Z,35.21
2019-04-21T10:34:21.386Z,34.70
2019-04-21T10:35:23.036Z,35.10
2019-04-21T10:36:22.710Z,35.77
2019-04-21T10:37:33.986Z,35.67
2019-04-21T10:38:30.205Z,35.21
2019-04-21T10:39:21.788Z,35.50
2019-04-21T10:40:21.493Z,34.32
2019-04-21T10:41:21.633Z,34.34
2019-04-21T10:42:21.532Z,34.22
2019-04-21T10:43:23.696Z,34.03
2019-04-21T10:44:23.043Z,34.61
2019-04-21T10:45:21.567Z,35.30
2019-04-21T10:46:22.469Z,35.11
2019-04-21T10:47:22.796Z,34.72
2019-04-21T10:48:23.008Z,34.34
2019-04-21T10:49:22.548Z,34.14
2019-04-21T10:50:22.626Z,33.68
2019-04-21T10:51:21.648Z,34.06
2019-04-21T10:52:22.833Z,33.76
2019-04-21T10:53:22.932Z,33.10
2019-04-21T10:54:21.930Z,33.86
2019-04-21T10:55:41.801Z,33.87
2019-04-21T10:56:28.786Z,33.37
2019-04-21T10:57:22.229Z,33.39
2019-04-21T10:58:22.530Z,33.20
2019-04-21T10:59:23.106Z,32.70
2019-04-21T11:00:21.795Z,33.28
2019-04-21T11:01:23.063Z,33.68
2019-04-21T11:02:23.025Z,33.76
2019-04-21T11:03:22.762Z,33.78
2019-04-21T11:04:29.028Z,33.78
2019-04-21T11:05:22.726Z,33.58
2019-04-21T11:06:21.877Z,33.68
2019-04-21T11:07:25.617Z,33.68
2019-04-21T11:08:28.392Z,33.68
2019-04-21T11:09:22.063Z,33.78
2019-04-21T11:10:22.305Z,33.20
2019-04-21T11:11:21.954Z,33.68
2019-04-21T11:12:21.972Z,34.36
2019-04-21T11:13:23.005Z,33.78
2019-04-21T11:14:23.141Z,33.87
2019-04-21T11:15:23.227Z,34.45
2019-04-21T11:16:23.383Z,34.64
2019-04-21T11:17:22.047Z,34.64
2019-04-21T11:18:22.066Z,34.38
2019-04-21T11:19:22.188Z,34.26
2019-04-21T11:20:22.811Z,35.14
2019-04-21T11:22:23.064Z,34.76
2019-04-21T11:23:22.459Z,34.08
2019-04-21T11:24:23.026Z,33.31
2019-04-21T11:25:22.194Z,33.70
2019-04-21T11:26:22.205Z,33.98
2019-04-21T11:27:22.626Z,33.80
2019-04-21T11:28:22.889Z,33.60
2019-04-21T11:29:23.303Z,34.66
2019-04-21T11:30:23.365Z,34.08
2019-04-21T11:31:22.917Z,32.82
2019-04-21T11:32:23.161Z,33.80
2019-04-21T11:33:22.795Z,33.40
2019-04-21T11:34:23.098Z,32.64
2019-04-21T11:35:23.390Z,33.80
2019-04-21T11:36:22.341Z,33.81
2019-04-21T11:37:22.356Z,33.23
2019-04-21T11:38:24.992Z,33.42
2019-04-21T11:39:35.310Z,33.23
2019-04-21T11:41:23.870Z,33.42
2019-04-21T11:42:23.731Z,33.52
2019-04-21T11:43:22.449Z,33.52
2019-04-21T11:44:24.661Z,33.14
2019-04-21T11:45:22.482Z,32.84
2019-04-21T11:46:22.665Z,33.62
2019-04-21T11:47:22.763Z,33.62
2019-04-21T11:48:24.104Z,33.52
2019-04-21T11:49:22.552Z,33.91
2019-04-21T11:50:23.239Z,33.83
2019-04-21T11:51:22.858Z,32.94
2019-04-21T11:52:22.871Z,32.84
2019-04-21T11:53:23.144Z,32.75
2019-04-21T11:54:22.658Z,32.94
2019-04-21T11:55:22.900Z,32.75
2019-04-21T11:56:23.056Z,32.65
2019-04-21T11:57:27.623Z,31.78
2019-04-21T11:58:23.662Z,31.78
2019-04-21T11:59:23.819Z,31.40
2019-04-21T12:00:23.894Z,31.68
2019-04-21T12:01:23.486Z,31.78
2019-04-21T12:02:23.570Z,32.65
2019-04-21T12:03:23.962Z,32.17
2019-04-21T12:04:23.461Z,32.18
2019-04-21T12:05:23.667Z,32.96
2019-04-21T12:06:28.643Z,31.60
2019-04-21T12:07:22.982Z,31.80
2019-04-21T12:08:29.979Z,31.41
2019-04-21T12:09:23.219Z,31.10
2019-04-21T12:10:23.755Z,31.30
2019-04-21T12:11:23.250Z,32.26
2019-04-21T12:12:23.284Z,32.57
2019-04-21T12:13:22.921Z,31.12
2019-04-21T12:14:23.820Z,30.83
2019-04-21T12:15:23.018Z,30.05
2019-04-21T12:16:23.367Z,28.62
2019-04-21T12:17:23.707Z,29.20
2019-04-21T12:18:26.338Z,29.67
2019-04-21T12:19:23.010Z,28.99
2019-04-21T12:20:24.326Z,29.09
2019-04-21T12:21:23.404Z,30.83
2019-04-21T12:22:28.140Z,30.54
2019-04-21T12:23:23.076Z,30.05
2019-04-21T12:24:23.097Z,30.15
2019-04-21T12:25:23.114Z,30.83
2019-04-21T12:26:24.163Z,30.83
2019-04-21T12:27:23.139Z,30.46
2019-04-21T12:28:23.882Z,29.59
2019-04-21T12:29:23.172Z,28.81
2019-04-21T12:30:24.044Z,28.52
2019-04-21T12:31:23.471Z,30.57
2019-04-21T12:32:24.150Z,29.02
2019-04-21T12:33:24.361Z,29.22
2019-04-21T12:34:23.784Z,29.02
2019-04-21T12:35:23.847Z,29.32
2019-04-21T12:36:24.157Z,28.25
2019-04-21T12:37:24.658Z,28.54
2019-04-21T12:38:34.581Z,29.02
2019-04-21T12:39:23.330Z,27.09
2019-04-21T12:40:24.315Z,26.89
2019-04-21T12:41:24.614Z,26.32
2019-04-21T12:42:24.781Z,26.23
2019-04-21T12:43:24.352Z,26.32
2019-04-21T12:44:24.596Z,26.42
2019-04-21T12:45:24.072Z,26.23
2019-04-21T12:46:23.441Z,26.23
2019-04-21T12:47:23.866Z,26.32
2019-04-21T12:48:44.138Z,26.52
2019-04-21T12:49:23.497Z,26.23
2019-04-21T12:50:23.659Z,25.36
2019-04-21T12:51:23.954Z,25.55
2019-04-21T12:52:23.995Z,25.66
2019-04-21T12:53:23.641Z,26.14
2019-04-21T12:54:23.845Z,26.14
2019-04-21T12:55:30.562Z,26.23
2019-04-21T12:56:23.611Z,26.32
2019-04-21T12:57:23.643Z,26.23
2019-04-21T12:58:23.769Z,26.52
2019-04-21T12:59:24.597Z,27.21
2019-04-21T13:00:24.815Z,28.28
2019-04-21T13:01:24.824Z,27.89
2019-04-21T13:02:23.705Z,27.60
2019-04-21T13:03:25.181Z,27.40
2019-04-21T13:04:23.896Z,27.98
2019-04-21T13:05:23.769Z,27.39
2019-04-21T13:06:23.766Z,28.96
2019-04-21T13:07:23.783Z,29.05
2019-04-21T13:08:25.013Z,27.89
2019-04-21T13:09:24.437Z,27.40
2019-04-21T13:10:24.284Z,29.24
2019-04-21T13:11:23.848Z,28.38
2019-04-21T13:12:24.836Z,27.40
2019-04-21T13:13:24.085Z,28.76
2019-04-21T13:14:24.054Z,27.50
2019-04-21T13:15:25.258Z,27.21
2019-04-21T13:16:43.517Z,27.79
2019-04-21T13:17:23.945Z,26.43
2019-04-21T13:18:24.030Z,26.53
2019-04-21T13:19:25.003Z,26.64
2019-04-21T13:20:25.302Z,28.09
2019-04-21T13:21:24.315Z,27.32
2019-04-21T13:22:24.032Z,26.64
2019-04-21T13:23:24.945Z,26.64
2019-04-21T13:24:24.197Z,26.35
2019-04-21T13:25:24.085Z,26.35
2019-04-21T13:26:34.443Z,26.26
2019-04-21T13:27:24.787Z,26.16
2019-04-21T13:28:24.939Z,25.77
2019-04-21T13:29:24.170Z,26.16
2019-04-21T13:30:24.242Z,26.45
2019-04-21T13:31:24.540Z,26.46
2019-04-21T13:32:24.916Z,25.30
2019-04-21T13:33:25.167Z,24.80
2019-04-21T13:34:24.263Z,24.90
2019-04-21T13:35:24.329Z,25.10
2019-04-21T13:36:25.566Z,25.30
2019-04-21T13:37:25.587Z,26.17
2019-04-21T13:38:34.622Z,25.31
2019-04-21T13:39:53.685Z,24.62
2019-04-21T13:40:39.888Z,25.01
2019-04-21T13:41:36.469Z,24.82
2019-04-21T13:42:32.194Z,25.30
2019-04-21T13:44:24.486Z,25.52
2019-04-21T13:45:25.812Z,26.01
2019-04-21T13:46:24.952Z,24.08
2019-04-21T13:47:24.924Z,24.68
2019-04-21T13:48:24.505Z,22.65
2019-04-21T13:49:25.341Z,22.48
2019-04-21T13:50:25.603Z,21.12
2019-04-21T13:51:25.058Z,20.54
2019-04-21T13:52:24.785Z,21.15
2019-04-21T13:53:25.017Z,19.89
2019-04-21T13:54:25.399Z,20.69
2019-04-21T13:55:25.531Z,21.68
2019-04-21T13:56:24.791Z,19.54
2019-04-21T13:57:26.219Z,19.75
2019-04-21T13:58:26.230Z,18.68
2019-04-21T13:59:24.757Z,17.98
2019-04-21T14:00:24.784Z,18.18
2019-04-21T14:01:25.611Z,17.68
2019-04-21T14:02:24.838Z,18.64
2019-04-21T14:03:26.674Z,18.63
2019-04-21T14:04:25.302Z,19.23
2019-04-21T14:05:26.426Z,18.74
2019-04-21T14:06:24.942Z,17.94
2019-04-21T14:07:26.131Z,18.13
2019-04-21T14:08:25.359Z,18.62
2019-04-21T14:09:35.973Z,18.90
2019-04-21T14:10:25.867Z,18.51
2019-04-21T14:11:25.199Z,19.99
2019-04-21T14:12:25.397Z,19.14
2019-04-21T14:13:26.723Z,17.48
2019-04-21T14:14:26.151Z,17.78
2019-04-21T14:15:26.290Z,16.69
2019-04-21T14:16:26.532Z,18.54
2019-04-21T14:17:25.221Z,18.54
2019-04-21T14:18:25.239Z,18.35
2019-04-21T14:19:25.657Z,17.87
2019-04-21T14:20:25.465Z,17.57